Time;durP1;ratioP1;P1;durP2;ratioP2;P2;SDS_P1;SDS_P2;PMS_P1;PMS_P2;Temp;Humidity;BMP_temperature;BMP_pressure;BME280_temperature;BME280_humidity;BME280_pressure;Samples;Min_cycle;Max_cycle;Signal;HPM_P1;HPM_P2
2023/10/21 00:00:29;;;;;;;0.43;0.43;;;;;;;;;;10042875;28;20042;-71
2023/10/21 00:05:21;;;;;;;0.50;0.50;;;;;;;;;;10029154;28;20153;-70
2023/10/21 00:10:13;;;;;;;0.50;0.50;;;;;;;;;;10027736;28;20050;-71
2023/10/21 00:15:07;;;;;;;0.50;0.50;;;;;;;;;;10030048;28;20132;-69
2023/10/21 00:20:06;;;;;;;0.40;0.40;;;;;;;;;;10028899;28;20111;-71
2023/10/21 00:25:00;;;;;;;0.40;0.40;;;;;;;;;;10040061;28;20049;-70
2023/10/21 00:29:52;;;;;;;0.50;0.50;;;;;;;;;;10063904;28;20427;-70
2023/10/21 00:34:44;;;;;;;0.50;0.50;;;;;;;;;;10042807;28;20041;-70
2023/10/21 00:39:39;;;;;;;1.45;1.30;;;;;;;;;;10026545;28;20046;-70
2023/10/21 00:44:31;;;;;;;0.40;0.40;;;;;;;;;;10025974;28;20041;-70
2023/10/21 00:49:23;;;;;;;0.85;0.85;;;;;;;;;;10027431;28;20053;-70
2023/10/21 00:54:16;;;;;;;0.68;0.68;;;;;;;;;;10041290;28;20049;-71
2023/10/21 00:59:08;;;;;;;0.50;0.50;;;;;;;;;;10027919;28;20038;-70
2023/10/21 01:04:02;;;;;;;0.50;0.50;;;;;;;;;;10040823;28;20058;-70
2023/10/21 01:08:54;;;;;;;0.45;0.45;;;;;;;;;;10042595;28;20057;-70
2023/10/21 01:13:48;;;;;;;0.40;0.40;;;;;;;;;;10025393;28;21243;-69
2023/10/21 01:18:40;;;;;;;0.40;0.40;;;;;;;;;;10026456;28;20073;-69
2023/10/21 01:23:36;;;;;;;0.40;0.40;;;;;;;;;;10026550;28;20120;-70
2023/10/21 01:28:29;;;;;;;0.50;0.50;;;;;;;;;;10025978;28;20372;-70
2023/10/21 01:33:21;;;;;;;0.40;0.40;;;;;;;;;;10024759;28;20472;-70
2023/10/21 01:38:15;;;;;;;0.40;0.40;;;;;;;;;;10026063;28;20378;-68
2023/10/21 01:43:06;;;;;;;0.55;0.55;;;;;;;;;;10025890;28;20045;-69
2023/10/21 01:47:58;;;;;;;0.40;0.40;;;;;;;;;;10025119;28;20121;-70
2023/10/21 01:52:50;;;;;;;0.55;0.55;;;;;;;;;;10026095;28;20061;-70
2023/10/21 01:57:42;;;;;;;0.50;0.50;;;;;;;;;;10024338;28;20042;-69
2023/10/21 02:02:35;;;;;;;0.40;0.40;;;;;;;;;;10040369;28;20365;-70
2023/10/21 02:07:28;;;;;;;16.27;2.78;;;;;;;;;;10024300;28;20041;-70
2023/10/21 02:12:19;;;;;;;0.50;0.50;;;;;;;;;;10025153;28;20049;-69
2023/10/21 02:17:11;;;;;;;0.50;0.50;;;;;;;;;;10024991;28;20516;-70
2023/10/21 02:22:03;;;;;;;0.40;0.40;;;;;;;;;;10025747;28;20121;-69
2023/10/21 02:26:56;;;;;;;0.40;0.40;;;;;;;;;;10025403;28;20128;-70
2023/10/21 02:31:48;;;;;;;0.40;0.40;;;;;;;;;;10025064;28;20065;-70
2023/10/21 02:36:40;;;;;;;0.50;0.50;;;;;;;;;;10037823;28;20033;-69
2023/10/21 02:41:32;;;;;;;0.40;0.40;;;;;;;;;;10025995;28;20038;-69
2023/10/21 02:46:24;;;;;;;0.40;0.40;;;;;;;;;;10031177;28;20038;-69
2023/10/21 02:51:17;;;;;;;0.40;0.40;;;;;;;;;;10032276;28;20049;-70
2023/10/21 02:56:13;;;;;;;0.40;0.40;;;;;;;;;;10031771;28;20384;-70
2023/10/21 03:01:21;;;;;;;0.50;0.50;;;;;;;;;;10031579;28;20048;-69
2023/10/21 03:06:14;;;;;;;0.50;0.50;;;;;;;;;;10031196;28;20062;-70
2023/10/21 03:11:08;;;;;;;0.50;0.50;;;;;;;;;;10034326;28;20046;-69
2023/10/21 03:16:00;;;;;;;0.40;0.40;;;;;;;;;;10046064;28;20044;-70
2023/10/21 03:20:52;;;;;;;0.40;0.40;;;;;;;;;;10045098;28;20042;-69
2023/10/21 03:25:58;;;;;;;0.50;0.50;;;;;;;;;;10050322;28;20091;-68
2023/10/21 03:30:50;;;;;;;0.50;0.50;;;;;;;;;;10045499;28;20420;-69
2023/10/21 03:35:58;;;;;;;0.40;0.40;;;;;;;;;;10030300;28;20112;-69
2023/10/21 03:41:04;;;;;;;0.60;0.60;;;;;;;;;;10039059;28;20041;-69
2023/10/21 03:46:02;;;;;;;0.50;0.50;;;;;;;;;;10039627;28;20041;-70
2023/10/21 03:51:01;;;;;;;0.50;0.50;;;;;;;;;;10029558;28;20103;-70
2023/10/21 03:55:53;;;;;;;0.50;0.50;;;;;;;;;;10027404;28;20042;-69
2023/10/21 04:00:45;;;;;;;0.50;0.50;;;;;;;;;;10028605;28;20050;-70
2023/10/21 04:05:37;;;;;;;0.45;0.45;;;;;;;;;;10031250;28;20934;-70
2023/10/21 04:10:29;;;;;;;0.50;0.50;;;;;;;;;;10027668;28;20049;-70
2023/10/21 04:15:21;;;;;;;0.40;0.40;;;;;;;;;;10029826;28;20056;-69
2023/10/21 04:20:13;;;;;;;4.82;1.20;;;;;;;;;;10029484;28;20057;-69
2023/10/21 04:25:06;;;;;;;0.50;0.50;;;;;;;;;;10028219;28;20049;-69
2023/10/21 04:29:58;;;;;;;0.50;0.50;;;;;;;;;;10027718;28;20052;-69
2023/10/21 04:34:50;;;;;;;0.50;0.50;;;;;;;;;;10026725;28;20137;-69
2023/10/21 04:39:42;;;;;;;1.55;1.50;;;;;;;;;;10028168;28;20049;-70
2023/10/21 04:44:34;;;;;;;0.50;0.50;;;;;;;;;;10028670;28;20042;-70
2023/10/21 04:49:26;;;;;;;0.40;0.40;;;;;;;;;;10029106;28;20054;-69
2023/10/21 04:54:18;;;;;;;0.50;0.50;;;;;;;;;;10028259;28;20050;-68
2023/10/21 04:59:10;;;;;;;0.50;0.50;;;;;;;;;;10026129;28;20042;-70
2023/10/21 05:04:02;;;;;;;0.50;0.50;;;;;;;;;;10035790;28;20068;-70
2023/10/21 05:08:54;;;;;;;0.50;0.50;;;;;;;;;;10035939;28;20449;-68
2023/10/21 05:13:46;;;;;;;0.40;0.40;;;;;;;;;;10042426;28;20045;-70
2023/10/21 05:18:38;;;;;;;0.47;0.47;;;;;;;;;;10047681;28;20068;-69
2023/10/21 05:23:30;;;;;;;0.98;0.98;;;;;;;;;;10033691;28;20136;-68
2023/10/21 05:28:22;;;;;;;0.40;0.40;;;;;;;;;;10028087;28;20088;-68
2023/10/21 05:33:14;;;;;;;0.50;0.50;;;;;;;;;;10029712;28;20060;-67
2023/10/21 05:38:06;;;;;;;0.80;0.80;;;;;;;;;;10026819;28;20042;-68
2023/10/21 05:42:58;;;;;;;0.50;0.50;;;;;;;;;;10025404;28;20042;-69
2023/10/21 05:47:50;;;;;;;0.70;0.70;;;;;;;;;;10025587;28;20108;-70
2023/10/21 05:52:42;;;;;;;0.50;0.50;;;;;;;;;;10025285;28;20080;-70
2023/10/21 05:57:34;;;;;;;0.80;0.80;;;;;;;;;;10026119;28;20042;-70
2023/10/21 06:02:25;;;;;;;0.50;0.50;;;;;;;;;;10026172;28;20455;-70
2023/10/21 06:07:17;;;;;;;1.73;1.63;;;;;;;;;;10028236;28;20358;-68
2023/10/21 06:12:10;;;;;;;0.50;0.50;;;;;;;;;;10025067;28;20404;-68
2023/10/21 06:17:02;;;;;;;0.82;0.82;;;;;;;;;;10030135;28;20042;-70
2023/10/21 06:21:54;;;;;;;0.50;0.50;;;;;;;;;;10062912;28;20361;-69
2023/10/21 06:26:46;;;;;;;0.85;0.85;;;;;;;;;;10059837;28;20444;-69
2023/10/21 06:31:38;;;;;;;0.50;0.50;;;;;;;;;;10070624;28;20049;-68
2023/10/21 06:36:30;;;;;;;1.80;1.75;;;;;;;;;;10070551;28;20049;-69
2023/10/21 06:41:23;;;;;;;0.40;0.40;;;;;;;;;;10069898;28;20053;-70
2023/10/21 06:46:15;;;;;;;0.93;0.93;;;;;;;;;;10067432;28;20073;-69
2023/10/21 06:51:07;;;;;;;0.40;0.40;;;;;;;;;;10032323;28;20388;-73
2023/10/21 06:55:59;;;;;;;0.47;0.47;;;;;;;;;;10031837;28;20057;-71
2023/10/21 07:00:51;;;;;;;0.50;0.50;;;;;;;;;;10031041;28;20464;-71
2023/10/21 07:05:43;;;;;;;0.50;0.50;;;;;;;;;;10030897;28;20057;-71
2023/10/21 07:10:35;;;;;;;0.50;0.50;;;;;;;;;;10030462;28;20046;-71
2023/10/21 07:15:33;;;;;;;0.50;0.50;;;;;;;;;;10030396;28;20100;-72
2023/10/21 07:20:26;;;;;;;0.52;0.52;;;;;;;;;;10056066;28;20425;-71
2023/10/21 07:25:18;;;;;;;0.47;0.47;;;;;;;;;;10066005;28;20447;-71
2023/10/21 07:30:10;;;;;;;0.50;0.50;;;;;;;;;;10065370;28;20037;-70
2023/10/21 07:35:03;;;;;;;0.40;0.40;;;;;;;;;;10065422;28;20041;-70
2023/10/21 07:39:55;;;;;;;0.50;0.50;;;;;;;;;;10065458;28;20119;-72
2023/10/21 07:44:47;;;;;;;0.40;0.40;;;;;;;;;;10065742;28;20136;-72
2023/10/21 07:49:39;;;;;;;0.50;0.50;;;;;;;;;;10067792;28;20100;-71
2023/10/21 07:54:31;;;;;;;0.50;0.50;;;;;;;;;;10068268;28;20104;-72
2023/10/21 07:59:23;;;;;;;0.40;0.40;;;;;;;;;;10068347;28;20041;-70
2023/10/21 08:04:15;;;;;;;0.40;0.40;;;;;;;;;;10066932;28;20057;-70
2023/10/21 08:09:08;;;;;;;0.40;0.40;;;;;;;;;;10067504;28;20124;-68
2023/10/21 08:14:00;;;;;;;0.70;0.70;;;;;;;;;;10066108;28;20128;-69
2023/10/21 08:18:52;;;;;;;0.40;0.40;;;;;;;;;;10066732;28;20053;-70
2023/10/21 08:23:44;;;;;;;0.95;0.95;;;;;;;;;;10067043;28;20096;-70
2023/10/21 08:28:36;;;;;;;0.30;0.30;;;;;;;;;;10067401;28;20041;-70
2023/10/21 08:33:28;;;;;;;0.30;0.30;;;;;;;;;;10061872;28;20046;-70
2023/10/21 08:38:19;;;;;;;1.45;1.05;;;;;;;;;;10065716;28;20464;-69
2023/10/21 08:43:15;;;;;;;0.30;0.30;;;;;;;;;;10051796;28;20118;-70
2023/10/21 08:48:09;;;;;;;0.30;0.30;;;;;;;;;;10058570;28;20561;-70
2023/10/21 08:53:06;;;;;;;0.40;0.40;;;;;;;;;;10063490;28;20475;-68
2023/10/21 08:57:58;;;;;;;0.30;0.30;;;;;;;;;;10044108;28;20045;-68
2023/10/21 09:02:50;;;;;;;0.50;0.50;;;;;;;;;;10051672;28;20116;-70
2023/10/21 09:07:46;;;;;;;0.50;0.50;;;;;;;;;;10048534;28;20115;-70
2023/10/21 09:12:38;;;;;;;0.40;0.40;;;;;;;;;;10064371;28;20049;-70
2023/10/21 09:17:35;;;;;;;0.30;0.30;;;;;;;;;;10059918;28;20037;-70
2023/10/21 09:22:27;;;;;;;0.30;0.30;;;;;;;;;;10057986;28;20379;-70
2023/10/21 09:27:19;;;;;;;0.30;0.30;;;;;;;;;;10064705;28;20539;-69
2023/10/21 09:32:11;;;;;;;0.30;0.30;;;;;;;;;;10064604;28;20041;-69
2023/10/21 09:37:04;;;;;;;0.30;0.30;;;;;;;;;;10063773;28;20053;-69
2023/10/21 09:41:59;;;;;;;1.13;1.00;;;;;;;;;;10065128;28;20056;-69
2023/10/21 09:46:51;;;;;;;0.30;0.30;;;;;;;;;;10054038;28;20049;-70
2023/10/21 09:51:53;;;;;;;0.30;0.30;;;;;;;;;;10068223;28;20415;-69
2023/10/21 09:56:45;;;;;;;0.60;0.60;;;;;;;;;;10072156;28;20049;-70
2023/10/21 10:01:39;;;;;;;0.70;0.70;;;;;;;;;;10071599;28;20049;-67
2023/10/21 10:06:32;;;;;;;0.40;0.40;;;;;;;;;;10070787;28;20444;-68
2023/10/21 10:11:26;;;;;;;0.40;0.40;;;;;;;;;;10071808;28;20049;-69
2023/10/21 10:16:23;;;;;;;0.30;0.30;;;;;;;;;;10071233;28;20602;-68
2023/10/21 10:21:15;;;;;;;0.30;0.30;;;;;;;;;;10071567;28;20107;-69
2023/10/21 10:26:08;;;;;;;0.32;0.32;;;;;;;;;;10071644;28;20053;-68
2023/10/21 10:31:00;;;;;;;0.30;0.30;;;;;;;;;;10071696;28;20041;-69
2023/10/21 10:35:54;;;;;;;0.30;0.30;;;;;;;;;;10071057;28;20088;-66
2023/10/21 10:40:47;;;;;;;0.50;0.50;;;;;;;;;;10070605;28;20042;-69
2023/10/21 10:45:39;;;;;;;0.50;0.50;;;;;;;;;;10071016;28;20056;-68
2023/10/21 10:50:36;;;;;;;0.30;0.30;;;;;;;;;;10066967;28;20076;-68
2023/10/21 10:55:28;;;;;;;0.30;0.30;;;;;;;;;;10054366;28;20076;-68
2023/10/21 11:00:20;;;;;;;0.57;0.57;;;;;;;;;;10046163;28;20045;-68
2023/10/21 11:05:22;;;;;;;0.43;0.43;;;;;;;;;;10062614;28;20048;-69
2023/10/21 11:10:22;;;;;;;0.22;0.22;;;;;;;;;;10060050;28;20379;-68
2023/10/21 11:15:14;;;;;;;0.40;0.40;;;;;;;;;;10069690;28;20057;-68
2023/10/21 11:20:09;;;;;;;0.30;0.30;;;;;;;;;;10054054;28;20042;-67
2023/10/21 11:25:03;;;;;;;0.30;0.30;;;;;;;;;;10069210;28;20041;-67
2023/10/21 11:29:55;;;;;;;0.30;0.30;;;;;;;;;;10065999;28;20103;-68
2023/10/21 11:34:48;;;;;;;0.30;0.30;;;;;;;;;;10063898;28;20045;-69
2023/10/21 11:39:40;;;;;;;0.30;0.30;;;;;;;;;;10064555;28;20049;-67
2023/10/21 11:44:32;;;;;;;0.30;0.30;;;;;;;;;;10057619;28;20045;-68
2023/10/21 11:49:25;;;;;;;0.65;0.65;;;;;;;;;;10065043;28;20045;-67
2023/10/21 11:54:32;;;;;;;0.30;0.30;;;;;;;;;;10051984;28;20452;-68
2023/10/21 12:31:26;;;;;;;0.30;0.30;;;;;;;;;;10065470;28;20390;-71
2023/10/21 12:40:38;;;;;;;0.40;0.40;;;;;;;;;;10059150;28;20042;-69
2023/10/21 12:45:34;;;;;;;0.32;0.32;;;;;;;;;;10061161;28;20045;-70
2023/10/21 12:50:27;;;;;;;0.40;0.40;;;;;;;;;;10055125;28;20045;-70
2023/10/21 12:55:23;;;;;;;0.40;0.40;;;;;;;;;;10029945;28;20503;-69
2023/10/21 13:00:15;;;;;;;0.40;0.40;;;;;;;;;;10029397;28;20460;-70
2023/10/21 13:05:10;;;;;;;0.40;0.40;;;;;;;;;;10027352;28;20053;-67
2023/10/21 13:10:03;;;;;;;0.40;0.40;;;;;;;;;;10030102;28;20054;-69
2023/10/21 13:14:55;;;;;;;0.32;0.32;;;;;;;;;;10027605;28;20073;-69
2023/10/21 13:19:47;;;;;;;0.50;0.50;;;;;;;;;;10028268;28;20038;-69
2023/10/21 13:24:39;;;;;;;0.40;0.40;;;;;;;;;;10028428;28;20528;-68
2023/10/21 13:29:32;;;;;;;0.30;0.30;;;;;;;;;;10028418;28;20049;-68
2023/10/21 13:34:24;;;;;;;0.45;0.45;;;;;;;;;;10027996;28;20057;-68
2023/10/21 13:39:18;;;;;;;0.30;0.30;;;;;;;;;;10027454;28;20038;-67
2023/10/21 13:44:11;;;;;;;0.40;0.40;;;;;;;;;;10027290;28;20045;-67
2023/10/21 13:49:05;;;;;;;0.38;0.38;;;;;;;;;;10028690;28;20420;-69
2023/10/21 13:53:57;;;;;;;0.40;0.40;;;;;;;;;;10026973;28;20148;-68
2023/10/21 13:58:49;;;;;;;0.30;0.30;;;;;;;;;;10027684;28;20041;-70
2023/10/21 14:03:41;;;;;;;0.80;0.80;;;;;;;;;;10026992;28;20050;-70
2023/10/21 14:08:33;;;;;;;0.47;0.47;;;;;;;;;;10026956;28;20092;-69
2023/10/21 14:13:28;;;;;;;0.50;0.50;;;;;;;;;;10027819;28;20445;-68
2023/10/21 14:18:22;;;;;;;0.50;0.50;;;;;;;;;;10036306;28;20045;-70
2023/10/21 14:23:15;;;;;;;0.50;0.50;;;;;;;;;;10037836;28;20046;-69
2023/10/21 14:28:12;;;;;;;0.35;0.35;;;;;;;;;;10026822;28;20069;-69
2023/10/21 14:33:04;;;;;;;0.30;0.30;;;;;;;;;;10026989;28;20042;-69
2023/10/21 14:37:56;;;;;;;2.05;1.95;;;;;;;;;;10031445;28;20128;-69
2023/10/21 14:42:48;;;;;;;1.20;1.20;;;;;;;;;;10042657;28;20045;-69
2023/10/21 14:47:40;;;;;;;0.60;0.60;;;;;;;;;;10067774;28;20099;-69
2023/10/21 14:52:33;;;;;;;0.30;0.30;;;;;;;;;;10069797;28;20214;-73
2023/10/21 14:57:26;;;;;;;0.45;0.45;;;;;;;;;;10069867;28;20049;-69
2023/10/21 15:02:19;;;;;;;0.30;0.30;;;;;;;;;;10070464;28;20475;-67
2023/10/21 15:07:11;;;;;;;0.30;0.30;;;;;;;;;;10070056;28;20045;-69
2023/10/21 15:12:03;;;;;;;0.30;0.30;;;;;;;;;;10068022;28;20428;-69
2023/10/21 15:16:55;;;;;;;0.30;0.30;;;;;;;;;;10069865;28;20049;-68
2023/10/21 15:21:47;;;;;;;0.30;0.30;;;;;;;;;;10070080;28;20479;-70
2023/10/21 15:26:39;;;;;;;0.30;0.30;;;;;;;;;;10068972;28;20467;-72
2023/10/21 15:31:31;;;;;;;0.63;0.63;;;;;;;;;;10069699;28;20080;-72
2023/10/21 15:36:24;;;;;;;0.32;0.32;;;;;;;;;;10062420;28;20038;-72
2023/10/21 15:41:16;;;;;;;0.38;0.38;;;;;;;;;;10031873;28;20125;-74
2023/10/21 15:46:10;;;;;;;0.43;0.43;;;;;;;;;;10031212;28;20157;-76
2023/10/21 15:51:12;;;;;;;0.40;0.40;;;;;;;;;;10030921;28;20361;-71
2023/10/21 15:56:04;;;;;;;0.40;0.40;;;;;;;;;;10037555;28;20476;-72
2023/10/21 16:00:56;;;;;;;0.40;0.40;;;;;;;;;;10061726;28;20104;-71
2023/10/21 16:05:48;;;;;;;0.30;0.30;;;;;;;;;;10063568;28;20076;-72
2023/10/21 16:10:40;;;;;;;0.50;0.50;;;;;;;;;;10066000;28;20100;-72
2023/10/21 16:15:32;;;;;;;0.40;0.40;;;;;;;;;;10066215;28;20120;-72
2023/10/21 16:20:25;;;;;;;0.40;0.40;;;;;;;;;;10054873;28;20042;-72
2023/10/21 16:25:17;;;;;;;0.40;0.40;;;;;;;;;;10024292;28;20373;-72
2023/10/21 16:30:09;;;;;;;0.40;0.40;;;;;;;;;;10023881;28;20042;-71
2023/10/21 16:35:01;;;;;;;0.40;0.40;;;;;;;;;;10027708;28;20041;-68
2023/10/21 16:39:55;;;;;;;0.40;0.40;;;;;;;;;;10028274;28;20120;-71
2023/10/21 16:44:51;;;;;;;0.40;0.40;;;;;;;;;;10028843;28;20453;-71
2023/10/21 16:49:43;;;;;;;0.40;0.40;;;;;;;;;;10028525;28;20082;-70
2023/10/21 16:54:35;;;;;;;0.40;0.40;;;;;;;;;;10033787;28;20152;-70
2023/10/21 16:59:27;;;;;;;0.40;0.40;;;;;;;;;;10027485;28;20472;-68
2023/10/21 17:04:19;;;;;;;0.40;0.40;;;;;;;;;;10028288;28;20057;-68
2023/10/21 17:09:11;;;;;;;0.40;0.40;;;;;;;;;;10027590;28;20126;-67
2023/10/21 17:14:04;;;;;;;0.40;0.40;;;;;;;;;;10027019;28;20056;-69
2023/10/21 17:18:56;;;;;;;0.40;0.40;;;;;;;;;;10028466;28;20076;-67
2023/10/21 17:23:48;;;;;;;0.40;0.40;;;;;;;;;;10027727;28;20042;-67
2023/10/21 17:28:41;;;;;;;0.50;0.50;;;;;;;;;;10027534;28;20041;-66
2023/10/21 17:33:33;;;;;;;0.40;0.40;;;;;;;;;;10027682;28;20038;-68
2023/10/21 17:38:41;;;;;;;0.50;0.50;;;;;;;;;;10027571;28;20053;-69
2023/10/21 17:43:33;;;;;;;0.50;0.50;;;;;;;;;;10027808;28;20049;-71
2023/10/21 17:48:26;;;;;;;0.40;0.40;;;;;;;;;;10026504;28;20077;-72
2023/10/21 17:53:18;;;;;;;0.40;0.40;;;;;;;;;;10027357;28;20124;-71
2023/10/21 17:58:09;;;;;;;0.40;0.40;;;;;;;;;;10027457;28;20120;-69
2023/10/21 18:03:02;;;;;;;0.65;0.65;;;;;;;;;;10030869;28;20085;-73
2023/10/21 18:07:56;;;;;;;0.43;0.43;;;;;;;;;;10043471;28;20088;-70
2023/10/21 18:12:48;;;;;;;0.65;0.65;;;;;;;;;;10066839;28;20110;-70
2023/10/21 18:17:40;;;;;;;0.50;0.50;;;;;;;;;;10070398;28;20422;-70
2023/10/21 18:22:33;;;;;;;0.93;0.93;;;;;;;;;;10068170;28;20042;-69
2023/10/21 18:27:25;;;;;;;0.73;0.73;;;;;;;;;;10056547;28;20069;-68
2023/10/21 18:32:16;;;;;;;0.93;0.68;;;;;;;;;;10068844;28;20042;-70
2023/10/21 18:37:08;;;;;;;0.60;0.60;;;;;;;;;;10053108;28;20548;-72
2023/10/21 18:42:00;;;;;;;0.52;0.52;;;;;;;;;;10060813;28;20042;-71
2023/10/21 18:46:52;;;;;;;1.05;1.05;;;;;;;;;;10057750;28;20052;-72
2023/10/21 18:51:44;;;;;;;0.85;0.85;;;;;;;;;;10044685;28;20432;-71
2023/10/21 18:56:37;;;;;;;0.50;0.50;;;;;;;;;;10033263;28;20423;-72
2023/10/21 19:01:32;;;;;;;1.02;1.02;;;;;;;;;;10034588;28;20104;-72
2023/10/21 19:06:33;;;;;;;0.50;0.50;;;;;;;;;;10030824;28;20053;-72
2023/10/21 19:11:26;;;;;;;0.85;0.85;;;;;;;;;;10032907;28;20480;-70
2023/10/21 19:16:22;;;;;;;0.60;0.60;;;;;;;;;;10031074;28;20486;-73
2023/10/21 19:21:14;;;;;;;0.50;0.50;;;;;;;;;;10032575;28;20049;-72
2023/10/21 19:26:06;;;;;;;0.50;0.50;;;;;;;;;;10056738;28;20124;-73
2023/10/21 19:31:12;;;;;;;0.50;0.50;;;;;;;;;;10060171;28;20051;-72
2023/10/21 19:36:08;;;;;;;0.50;0.50;;;;;;;;;;10067887;28;20068;-73
2023/10/21 19:41:07;;;;;;;0.50;0.50;;;;;;;;;;10066311;28;20045;-73
2023/10/21 19:46:01;;;;;;;0.50;0.50;;;;;;;;;;10040490;28;20046;-72
2023/10/21 19:50:53;;;;;;;0.50;0.50;;;;;;;;;;10033306;28;20054;-71
2023/10/21 19:55:58;;;;;;;0.82;0.82;;;;;;;;;;10039842;28;20049;-72
2023/10/21 20:00:50;;;;;;;0.50;0.50;;;;;;;;;;10045384;28;20041;-72
2023/10/21 20:05:55;;;;;;;0.50;0.50;;;;;;;;;;10067082;28;20077;-73
2023/10/21 20:10:47;;;;;;;0.50;0.50;;;;;;;;;;10063715;28;20038;-73
2023/10/21 20:15:43;;;;;;;0.50;0.50;;;;;;;;;;10062182;28;20093;-72
2023/10/21 20:20:36;;;;;;;0.50;0.50;;;;;;;;;;10051706;28;20042;-72
2023/10/21 20:25:28;;;;;;;1.98;1.35;;;;;;;;;;10065366;28;20069;-72
2023/10/21 20:30:21;;;;;;;0.50;0.50;;;;;;;;;;10049972;28;20050;-72
2023/10/21 20:35:13;;;;;;;0.40;0.40;;;;;;;;;;10060030;28;20041;-72
2023/10/21 20:40:25;;;;;;;0.50;0.50;;;;;;;;;;10051467;28;20053;-72
2023/10/21 20:45:19;;;;;;;0.45;0.45;;;;;;;;;;10064895;28;20049;-71
2023/10/21 20:50:11;;;;;;;0.50;0.50;;;;;;;;;;10064903;28;20037;-72
2023/10/21 20:55:03;;;;;;;0.50;0.50;;;;;;;;;;10064491;28;20049;-73
2023/10/21 20:59:55;;;;;;;0.50;0.50;;;;;;;;;;10051163;28;20380;-72
2023/10/21 21:04:46;;;;;;;0.52;0.52;;;;;;;;;;10035527;28;20050;-71
2023/10/21 21:09:38;;;;;;;0.60;0.60;;;;;;;;;;10053518;28;20384;-72
2023/10/21 21:14:30;;;;;;;0.50;0.50;;;;;;;;;;10062295;28;20116;-72
2023/10/21 21:19:22;;;;;;;0.50;0.50;;;;;;;;;;10063268;28;20484;-72
2023/10/21 21:24:15;;;;;;;0.50;0.50;;;;;;;;;;10060180;28;20467;-72
2023/10/21 21:29:07;;;;;;;0.50;0.50;;;;;;;;;;10060373;28;20056;-73
2023/10/21 21:33:58;;;;;;;0.50;0.50;;;;;;;;;;10061052;28;20145;-71
2023/10/21 21:38:50;;;;;;;0.60;0.60;;;;;;;;;;10062684;28;20045;-72
2023/10/21 21:43:42;;;;;;;0.50;0.50;;;;;;;;;;10064384;28;20168;-72
2023/10/21 21:48:34;;;;;;;0.50;0.50;;;;;;;;;;10068574;28;20483;-72
2023/10/21 21:53:26;;;;;;;0.60;0.60;;;;;;;;;;10072076;28;20045;-72
2023/10/21 21:58:18;;;;;;;0.50;0.50;;;;;;;;;;10071340;28;20045;-72
2023/10/21 22:03:13;;;;;;;0.60;0.60;;;;;;;;;;10071263;28;20058;-71
2023/10/21 22:08:05;;;;;;;0.60;0.60;;;;;;;;;;10069573;28;20085;-72
2023/10/21 22:12:57;;;;;;;0.60;0.60;;;;;;;;;;10071090;28;20502;-72
2023/10/21 22:17:49;;;;;;;0.52;0.52;;;;;;;;;;10070582;28;20626;-72
2023/10/21 22:22:41;;;;;;;0.60;0.60;;;;;;;;;;10070888;28;20068;-72
2023/10/21 22:27:34;;;;;;;0.60;0.60;;;;;;;;;;10070819;28;20072;-71
2023/10/21 22:32:27;;;;;;;0.50;0.50;;;;;;;;;;10070015;28;20140;-72
2023/10/21 22:37:19;;;;;;;0.50;0.50;;;;;;;;;;10069505;28;20042;-71
2023/10/21 22:42:11;;;;;;;0.60;0.60;;;;;;;;;;10070061;28;20041;-73
2023/10/21 22:47:03;;;;;;;0.60;0.60;;;;;;;;;;10069592;28;20037;-72
2023/10/21 22:51:55;;;;;;;0.60;0.60;;;;;;;;;;10069297;28;20053;-72
2023/10/21 22:56:47;;;;;;;0.60;0.60;;;;;;;;;;10069440;28;20083;-71
2023/10/21 23:01:40;;;;;;;0.70;0.70;;;;;;;;;;10068401;28;20078;-72
2023/10/21 23:06:37;;;;;;;0.50;0.50;;;;;;;;;;10069539;28;20041;-72
2023/10/21 23:11:29;;;;;;;0.60;0.60;;;;;;;;;;10068781;28;20056;-72
2023/10/21 23:16:22;;;;;;;0.50;0.50;;;;;;;;;;10068992;28;20886;-72
2023/10/21 23:21:14;;;;;;;0.60;0.60;;;;;;;;;;10068401;28;20075;-71
2023/10/21 23:26:06;;;;;;;0.50;0.50;;;;;;;;;;10068024;28;20041;-72
2023/10/21 23:31:00;;;;;;;0.60;0.60;;;;;;;;;;10068315;28;20044;-72
2023/10/21 23:35:52;;;;;;;0.50;0.50;;;;;;;;;;10068422;28;20092;-71
2023/10/21 23:40:44;;;;;;;0.55;0.55;;;;;;;;;;10068099;28;20045;-71
2023/10/21 23:45:36;;;;;;;0.50;0.50;;;;;;;;;;10067482;28;20041;-72
2023/10/21 23:50:28;;;;;;;0.68;0.68;;;;;;;;;;10068042;28;20033;-72
2023/10/21 23:55:20;;;;;;;0.50;0.50;;;;;;;;;;10067464;28;20051;-71
